Time;durP1;ratioP1;P1;durP2;ratioP2;P2;SDS_P1;SDS_P2;PMS_P1;PMS_P2;Temp;Humidity;BMP_temperature;BMP_pressure;BME280_temperature;BME280_humidity;BME280_pressure;Samples;Min_cycle;Max_cycle;Signal;HPM_P1;HPM_P2
2022/03/17 10:13:10;;;;;;;34.93;29.50;;;;;;;9.97;74.68;101149.41;5170025;27;21139;-59
2022/03/17 10:15:36;;;;;;;33.93;29.43;;;;;;;10.24;72.81;101154.47;5151525;27;20611;-63
2022/03/17 10:18:17;;;;;;;35.30;30.67;;;;;;;10.40;71.93;101155.63;5152505;27;20201;-61
2022/03/17 10:20:43;;;;;;;35.80;29.73;;;;;;;10.62;71.68;101158.22;5111161;28;20613;-61
2022/03/17 10:23:08;;;;;;;37.27;30.07;;;;;;;10.80;70.50;101163.56;5127598;27;20256;-60
2022/03/17 10:25:34;;;;;;;33.70;29.50;;;;;;;10.92;70.04;101154.56;5130399;27;20269;-61
2022/03/17 10:28:02;;;;;;;34.67;30.33;;;;;;;10.97;69.36;101163.75;5134230;27;20506;-61
2022/03/17 10:30:35;;;;;;;33.27;29.77;;;;;;;10.98;70.18;101170.56;5130842;27;20179;-60
2022/03/17 10:33:26;;;;;;;35.77;31.40;;;;;;;10.96;72.33;101177.53;5126133;27;20202;-61
2022/03/17 10:35:52;;;;;;;33.83;30.63;;;;;;;10.98;74.33;101180.88;5085237;28;20676;-61
2022/03/17 10:38:19;;;;;;;33.57;30.03;;;;;;;10.89;74.64;101190.69;5068698;28;20262;-61
2022/03/17 10:41:03;;;;;;;34.43;30.83;;;;;;;10.65;76.36;101185.59;5064603;28;20207;-60
2022/03/17 10:43:29;;;;;;;36.27;32.47;;;;;;;10.45;78.47;101188.91;5049119;28;20215;-60
2022/03/17 10:46:19;;;;;;;36.83;32.93;;;;;;;10.14;79.17;101192.53;5065600;28;20283;-61
2022/03/17 10:49:00;;;;;;;36.23;32.47;;;;;;;10.21;80.12;101206.84;5083160;28;20207;-60
2022/03/17 10:51:35;;;;;;;35.23;31.40;;;;;;;10.20;79.86;101199.22;5085280;28;20219;-61
2022/03/17 10:54:21;;;;;;;36.03;31.50;;;;;;;10.02;81.47;101202.34;5068504;28;20168;-61
2022/03/17 10:57:03;;;;;;;34.03;30.63;;;;;;;9.88;85.65;101204.56;5065265;28;20189;-62
2022/03/17 10:59:53;;;;;;;32.60;29.23;;;;;;;9.65;88.75;101211.31;5076896;28;20172;-60
2022/03/17 11:02:21;;;;;;;33.73;29.23;;;;;;;9.82;89.98;101209.91;5085112;28;20188;-61
2022/03/17 11:04:47;;;;;;;30.33;27.33;;;;;;;9.78;91.45;101222.00;5067868;28;20299;-60
2022/03/17 11:07:15;;;;;;;29.57;23.73;;;;;;;9.57;95.81;101228.69;5117965;27;20227;-61
2022/03/17 11:09:46;;;;;;;25.20;22.70;;;;;;;9.38;100.00;101223.31;5130202;27;20181;-59
2022/03/17 11:12:17;;;;;;;24.80;22.17;;;;;;;9.28;100.00;101235.59;5144827;27;20277;-59
2022/03/17 11:14:47;;;;;;;26.53;23.73;;;;;;;9.24;100.00;101243.44;5169837;27;20583;-60
2022/03/17 11:17:18;;;;;;;25.77;23.07;;;;;;;9.20;100.00;101251.25;5138020;27;20165;-64
2022/03/17 11:19:45;;;;;;;25.47;22.50;;;;;;;9.19;100.00;101254.69;5149000;27;20171;-64
2022/03/17 11:22:20;;;;;;;29.83;23.97;;;;;;;8.83;100.00;101260.03;5130420;27;20166;-61
2022/03/17 11:24:46;;;;;;;31.30;25.43;;;;;;;8.91;100.00;101256.41;5098246;28;20178;-64
2022/03/17 11:27:13;;;;;;;31.83;25.17;;;;;;;8.78;100.00;101261.03;5117160;27;20176;-64
2022/03/17 11:29:44;;;;;;;25.73;22.70;;;;;;;9.04;100.00;101260.28;5096959;27;20171;-64
2022/03/17 11:32:31;;;;;;;26.93;22.57;;;;;;;9.17;100.00;101261.59;5097097;27;20214;-63
2022/03/17 11:35:18;;;;;;;27.77;23.43;;;;;;;9.19;100.00;101270.09;5119766;27;20226;-62
2022/03/17 11:37:44;;;;;;;26.03;21.90;;;;;;;9.29;100.00;101274.94;4972121;28;20228;-61
2022/03/17 11:40:16;;;;;;;21.37;19.07;;;;;;;9.17;100.00;101271.03;5045439;28;20185;-63
2022/03/17 11:43:03;;;;;;;24.10;18.73;;;;;;;9.02;100.00;101268.03;5070514;28;20207;-62
2022/03/17 11:45:28;;;;;;;20.20;17.20;;;;;;;9.20;100.00;101278.63;5082795;28;20530;-63
2022/03/17 11:48:02;;;;;;;22.20;17.90;;;;;;;9.27;100.00;101277.56;5094079;28;20175;-64
2022/03/17 11:50:41;;;;;;;22.00;18.83;;;;;;;9.29;100.00;101277.50;5086616;27;20338;-63
2022/03/17 11:53:14;;;;;;;21.60;19.17;;;;;;;9.34;100.00;101283.34;5087481;28;20184;-64
2022/03/17 11:55:42;;;;;;;23.70;20.07;;;;;;;9.45;100.00;101286.44;5075757;28;20225;-63
2022/03/17 11:58:24;;;;;;;20.17;18.07;;;;;;;9.35;97.35;101278.19;5093491;28;20642;-64
2022/03/17 12:01:13;;;;;;;21.40;18.63;;;;;;;9.48;96.18;101281.19;5028060;28;20221;-64
2022/03/17 12:03:46;;;;;;;18.33;16.43;;;;;;;9.42;95.07;101291.66;5063231;28;20186;-63
2022/03/17 12:06:13;;;;;;;17.13;15.33;;;;;;;9.52;93.52;101292.22;5072965;28;20187;-64
2022/03/17 12:09:00;;;;;;;19.17;17.25;;;;;;;9.57;91.79;101292.91;5069256;28;20420;-60
2022/03/17 12:11:38;;;;;;;17.87;15.97;;;;;;;9.37;91.01;101286.66;5068481;28;20236;-58
2022/03/17 12:14:14;;;;;;;16.93;15.13;;;;;;;9.25;92.48;101296.47;5037383;28;20232;-59
2022/03/17 12:16:51;;;;;;;16.17;14.53;;;;;;;9.46;92.16;101302.69;5089648;28;20235;-60
2022/03/17 12:19:24;;;;;;;16.57;14.97;;;;;;;9.43;91.54;101311.31;5074426;28;20181;-59
2022/03/17 12:21:58;;;;;;;15.77;14.17;;;;;;;9.26;91.12;101306.69;5092354;28;20258;-61
2022/03/17 12:24:41;;;;;;;17.80;16.00;;;;;;;9.24;90.24;101303.34;5071956;28;20489;-57
2022/03/17 12:27:12;;;;;;;15.87;14.37;;;;;;;9.27;90.85;101310.94;5089859;28;20172;-58
2022/03/17 12:29:41;;;;;;;15.63;12.70;;;;;;;8.84;90.59;101320.72;5092714;28;20267;-58
2022/03/17 12:32:26;;;;;;;16.30;14.53;;;;;;;8.64;92.65;101318.69;5023670;28;20749;-58
2022/03/17 12:34:54;;;;;;;15.40;13.80;;;;;;;8.84;92.71;101318.16;5052373;28;20181;-59
2022/03/17 12:37:33;;;;;;;16.40;14.60;;;;;;;8.93;91.12;101316.19;5054859;28;20271;-59
2022/03/17 12:40:02;;;;;;;15.33;13.73;;;;;;;8.93;91.12;101318.75;5067592;28;20233;-59
2022/03/17 12:42:48;;;;;;;14.33;12.90;;;;;;;8.92;91.57;101312.81;5075108;28;20696;-58
2022/03/17 12:45:18;;;;;;;15.17;13.57;;;;;;;9.03;91.90;101315.91;5092605;28;20198;-58
2022/03/17 12:47:46;;;;;;;15.00;13.17;;;;;;;9.10;90.25;101320.88;5092702;28;20177;-59
2022/03/17 12:50:18;;;;;;;16.57;14.87;;;;;;;9.19;88.70;101310.31;5057131;28;20633;-59
2022/03/17 12:52:45;;;;;;;15.87;14.27;;;;;;;9.36;88.51;101323.53;5098098;28;20195;-59
2022/03/17 12:55:13;;;;;;;17.17;15.37;;;;;;;9.25;87.82;101320.41;5074140;28;20164;-60
2022/03/17 12:57:39;;;;;;;14.90;13.40;;;;;;;9.22;88.43;101325.66;5073980;28;20186;-59
2022/03/17 13:00:13;;;;;;;14.20;12.90;;;;;;;9.16;87.85;101326.66;5062890;28;20176;-59
2022/03/17 13:02:46;;;;;;;12.63;11.43;;;;;;;8.91;88.14;101323.94;5084813;28;20177;-61
2022/03/17 13:07:59;;;;;;;13.57;12.27;;;;;;;8.88;88.76;101322.31;5088372;28;20680;-58
2022/03/17 13:10:26;;;;;;;13.33;11.93;;;;;;;8.71;87.98;101319.38;5042714;28;20232;-57
2022/03/17 13:15:36;;;;;;;10.97;9.87;;;;;;;8.88;87.26;101326.59;5076161;28;20685;-58
2022/03/17 13:18:04;;;;;;;14.77;10.57;;;;;;;8.96;86.83;101327.22;5071972;28;20259;-59
2022/03/17 13:20:29;;;;;;;11.93;10.73;;;;;;;8.99;86.03;101328.84;5076523;28;20663;-59
2022/03/17 13:23:00;;;;;;;12.00;10.77;;;;;;;9.08;86.65;101330.31;5078315;28;20173;-59
2022/03/17 13:25:27;;;;;;;13.60;11.20;;;;;;;9.04;84.93;101325.28;5073873;28;20533;-59
2022/03/17 13:27:57;;;;;;;11.30;10.00;;;;;;;9.10;85.46;101342.22;5073478;28;20193;-58
2022/03/17 13:30:23;;;;;;;12.77;8.80;;;;;;;9.08;83.87;101341.44;5007000;28;20241;-61
2022/03/17 13:33:05;;;;;;;11.63;8.40;;;;;;;9.16;83.23;101344.63;5058158;28;20284;-59
2022/03/17 13:35:44;;;;;;;9.17;7.07;;;;;;;8.94;82.33;101351.25;5053474;28;20976;-58
2022/03/17 13:38:12;;;;;;;12.10;8.07;;;;;;;8.88;82.17;101345.41;5048292;27;20276;-58
2022/03/17 13:40:45;;;;;;;8.17;7.03;;;;;;;9.06;82.02;101342.38;5062699;28;20313;-58
2022/03/17 13:43:12;;;;;;;10.90;7.73;;;;;;;9.27;81.04;101354.59;5099631;28;20648;-61
2022/03/17 13:45:39;;;;;;;6.90;6.20;;;;;;;9.04;80.66;101355.22;5071649;28;20541;-58
2022/03/17 13:48:07;;;;;;;7.38;5.95;;;;;;;9.19;79.74;101361.66;5090590;28;20415;-59
2022/03/17 13:50:39;;;;;;;7.30;5.20;;;;;;;9.39;78.39;101366.25;5066685;28;20219;-58
2022/03/17 13:53:12;;;;;;;6.50;5.47;;;;;;;9.06;78.50;101366.31;5102434;28;20850;-58
2022/03/17 13:55:43;;;;;;;8.27;4.80;;;;;;;9.28;77.31;101358.84;5073706;28;20175;-59
2022/03/17 13:58:17;;;;;;;5.13;4.60;;;;;;;9.11;76.39;101372.16;5091434;28;20525;-59
2022/03/17 14:00:46;;;;;;;6.20;4.73;;;;;;;8.97;75.85;101369.16;5061742;28;20223;-59
2022/03/17 14:03:16;;;;;;;6.40;4.57;;;;;;;8.84;76.17;101372.03;5069012;28;20173;-61
2022/03/17 14:06:08;;;;;;;6.97;4.63;;;;;;;8.80;76.89;101373.00;5086792;28;20183;-59
2022/03/17 14:08:44;;;;;;;6.77;4.63;;;;;;;9.08;77.11;101376.53;5076471;28;20257;-57
2022/03/17 14:11:12;;;;;;;5.80;4.77;;;;;;;9.06;76.61;101379.13;5064214;28;20310;-59
2022/03/17 14:13:41;;;;;;;6.60;5.97;;;;;;;9.15;76.29;101380.59;5074833;28;20264;-59
2022/03/17 14:16:10;;;;;;;7.63;6.80;;;;;;;9.13;75.43;101375.53;5053186;28;20212;-58
2022/03/17 14:18:36;;;;;;;8.97;5.87;;;;;;;9.06;76.00;101375.75;5053500;28;20176;-57
2022/03/17 14:21:02;;;;;;;9.97;6.67;;;;;;;9.28;76.64;101378.53;5050521;28;20276;-59
2022/03/17 14:26:13;;;;;;;10.37;7.97;;;;;;;9.20;76.06;101384.75;5086743;28;20188;-58
2022/03/17 14:28:39;;;;;;;9.17;7.10;;;;;;;9.09;75.75;101396.19;5068646;28;20280;-58
2022/03/17 14:31:04;;;;;;;11.50;7.07;;;;;;;9.15;75.87;101399.44;5088210;28;20310;-59
2022/03/17 14:33:30;;;;;;;10.03;7.50;;;;;;;9.21;75.62;101398.41;5098965;28;20559;-59
2022/03/17 14:35:55;;;;;;;8.10;7.07;;;;;;;9.49;75.56;101395.91;5091223;28;20165;-59
2022/03/17 14:38:20;;;;;;;11.57;8.30;;;;;;;9.32;74.28;101406.66;5075207;28;20550;-58
2022/03/17 14:40:47;;;;;;;8.17;7.20;;;;;;;9.32;74.86;101405.81;5065876;28;20227;-58
2022/03/17 14:43:13;;;;;;;8.57;7.20;;;;;;;9.33;75.05;101413.47;5063585;28;20172;-60
2022/03/17 14:45:38;;;;;;;8.87;7.97;;;;;;;9.62;74.21;101408.38;5071243;28;20218;-59
2022/03/17 14:48:04;;;;;;;9.13;7.80;;;;;;;9.44;74.35;101417.44;5070835;28;20191;-59
2022/03/17 14:50:29;;;;;;;10.47;8.83;;;;;;;9.44;74.38;101420.00;5063705;28;20235;-59
2022/03/17 14:52:55;;;;;;;9.27;8.27;;;;;;;9.47;73.53;101436.19;5082582;28;20211;-58
2022/03/17 14:55:20;;;;;;;12.77;8.93;;;;;;;9.44;75.09;101431.16;5070979;28;20165;-59
2022/03/17 14:57:46;;;;;;;11.37;9.17;;;;;;;9.42;74.08;101421.81;5053612;28;20608;-59
2022/03/17 15:00:11;;;;;;;9.67;8.67;;;;;;;9.43;74.24;101428.63;5063970;28;20255;-59
2022/03/17 15:02:37;;;;;;;11.93;8.50;;;;;;;9.36;74.38;101436.50;5080039;28;20674;-59
2022/03/17 15:05:02;;;;;;;9.53;8.57;;;;;;;9.41;75.26;101435.53;5060376;28;20642;-58
2022/03/17 15:07:31;;;;;;;9.73;8.37;;;;;;;9.33;75.54;101438.31;5074605;28;20184;-60
2022/03/17 15:09:56;;;;;;;10.90;9.17;;;;;;;9.11;76.13;101433.75;5055779;28;20251;-58
2022/03/17 15:12:22;;;;;;;9.37;8.37;;;;;;;8.99;77.01;101440.06;5070422;28;20311;-57
2022/03/17 15:14:48;;;;;;;10.17;8.20;;;;;;;8.90;76.68;101437.75;5047564;28;20193;-57
2022/03/17 15:17:13;;;;;;;8.97;8.07;;;;;;;8.90;76.71;101447.16;5073957;28;20177;-59
2022/03/17 15:19:39;;;;;;;10.33;8.63;;;;;;;8.93;76.71;101441.94;5074651;28;20177;-59
2022/03/17 15:22:04;;;;;;;12.40;8.50;;;;;;;9.16;75.94;101443.91;5079032;28;20584;-59
2022/03/17 15:24:30;;;;;;;13.63;9.40;;;;;;;9.36;74.16;101438.22;5050062;28;20187;-58
2022/03/17 15:30:07;;;;;;;11.20;7.73;;;;;;;9.26;74.79;101447.06;5061279;28;20612;-59
2022/03/17 15:32:26;;;;;;;9.60;7.93;;;;;;;9.09;74.20;101450.94;5061683;28;20232;-58
2022/03/17 15:34:51;;;;;;;10.33;9.10;;;;;;;9.13;73.94;101462.81;5068796;28;20252;-58
2022/03/17 15:37:17;;;;;;;9.87;8.87;;;;;;;9.12;73.20;101466.25;5064966;28;20263;-59
2022/03/17 15:39:42;;;;;;;10.67;9.63;;;;;;;9.05;74.17;101472.41;5089009;28;20185;-58
2022/03/17 15:42:07;;;;;;;9.67;8.70;;;;;;;9.00;73.76;101462.28;5055611;28;20216;-58
2022/03/17 15:44:33;;;;;;;11.57;9.93;;;;;;;8.77;74.25;101472.28;5066587;28;20211;-58
2022/03/17 15:46:58;;;;;;;11.37;10.23;;;;;;;8.70;74.93;101482.69;5061321;28;20242;-58
2022/03/17 15:49:23;;;;;;;11.23;9.27;;;;;;;8.69;73.31;101477.63;5073165;28;20303;-61
2022/03/17 15:51:49;;;;;;;12.27;9.73;;;;;;;8.67;73.55;101484.50;5086642;28;20588;-68
2022/03/17 15:54:16;;;;;;;11.70;9.80;;;;;;;8.73;74.42;101486.91;5079707;28;20173;-60
2022/03/17 15:56:41;;;;;;;10.90;9.20;;;;;;;8.65;73.96;101499.09;5067921;28;20176;-59
2022/03/17 15:59:09;;;;;;;10.47;9.47;;;;;;;8.69;73.46;101493.84;5073480;28;20183;-59
2022/03/17 16:01:37;;;;;;;11.60;10.40;;;;;;;8.70;74.16;101492.13;5056943;28;20232;-60
2022/03/17 16:04:02;;;;;;;12.73;10.30;;;;;;;8.71;74.18;101498.94;5055437;28;20191;-59
2022/03/17 16:06:28;;;;;;;10.87;9.77;;;;;;;8.76;72.96;101502.25;5073821;28;20185;-58
2022/03/17 16:08:54;;;;;;;12.80;10.07;;;;;;;8.65;73.12;101506.78;5073815;28;20164;-59
2022/03/17 16:14:28;;;;;;;11.47;10.27;;;;;;;8.80;73.37;101510.72;5073126;28;20231;-59
2022/03/17 16:16:58;;;;;;;12.97;10.27;;;;;;;8.94;72.85;101518.06;5060479;28;20222;-58
2022/03/17 16:19:24;;;;;;;11.17;9.33;;;;;;;8.86;72.99;101524.22;5072320;28;20515;-60
2022/03/17 16:21:52;;;;;;;11.50;9.13;;;;;;;8.79;72.97;101521.84;5079316;28;20226;-63
2022/03/17 16:24:19;;;;;;;10.53;9.53;;;;;;;8.71;73.83;101532.31;5074231;28;20230;-58
2022/03/17 16:26:44;;;;;;;14.53;9.40;;;;;;;8.69;74.12;101524.63;5073068;28;20237;-58
2022/03/17 16:29:10;;;;;;;11.00;9.80;;;;;;;8.74;74.16;101521.13;5075203;28;20180;-57
2022/03/17 16:31:45;;;;;;;10.50;9.43;;;;;;;8.79;74.47;101529.53;5010910;28;20115;-61
2022/03/17 16:34:20;;;;;;;11.07;9.97;;;;;;;9.01;74.21;101537.56;5058779;28;20192;-61
2022/03/17 16:36:45;;;;;;;10.10;9.10;;;;;;;9.01;74.18;101535.00;5055093;28;20620;-61
2022/03/17 16:39:13;;;;;;;11.50;10.13;;;;;;;8.91;73.61;101548.94;5060358;28;20270;-61
2022/03/17 16:41:38;;;;;;;10.87;9.43;;;;;;;9.04;73.66;101540.91;5065859;28;20234;-61
2022/03/17 16:44:07;;;;;;;10.30;9.20;;;;;;;9.12;72.79;101538.13;5082122;28;20177;-60
2022/03/17 16:46:33;;;;;;;10.83;9.67;;;;;;;9.13;73.20;101546.66;5073916;28;20252;-62
2022/03/17 16:48:59;;;;;;;11.37;9.67;;;;;;;9.03;73.38;101552.03;5058099;28;20617;-61
2022/03/17 16:51:24;;;;;;;9.47;8.20;;;;;;;8.78;72.97;101556.94;5073167;28;20355;-60
2022/03/17 16:53:53;;;;;;;10.40;8.20;;;;;;;8.70;73.04;101556.25;5082307;28;20183;-63
2022/03/17 16:56:19;;;;;;;10.00;8.50;;;;;;;8.63;73.68;101562.41;5073384;28;20181;-59
2022/03/17 16:58:47;;;;;;;10.87;8.23;;;;;;;8.81;73.56;101573.97;5064907;28;20184;-59
2022/03/17 17:01:13;;;;;;;11.10;8.63;;;;;;;8.91;73.37;101574.59;5082113;28;20219;-59
2022/03/17 17:03:39;;;;;;;9.77;8.77;;;;;;;8.67;73.26;101577.69;5077863;28;20183;-59
2022/03/17 17:06:07;;;;;;;13.90;9.33;;;;;;;8.82;74.51;101579.06;5072371;28;20165;-60
2022/03/17 17:08:32;;;;;;;10.73;9.10;;;;;;;8.81;73.39;101581.69;5054552;28;20169;-62
2022/03/17 17:10:58;;;;;;;12.10;7.77;;;;;;;8.71;73.63;101584.44;5068233;28;20315;-62
2022/03/17 17:13:23;;;;;;;10.63;8.13;;;;;;;8.71;73.97;101591.31;5069525;28;20170;-61
2022/03/17 17:15:49;;;;;;;10.50;7.93;;;;;;;8.50;74.08;101595.19;5069791;28;20231;-61
2022/03/17 17:18:16;;;;;;;10.60;9.50;;;;;;;8.59;74.23;101591.59;5069946;28;20481;-60
2022/03/17 17:20:42;;;;;;;8.70;7.80;;;;;;;8.61;73.80;101600.94;5068088;28;20226;-61
2022/03/17 17:31:20;;;;;;;8.90;6.87;;;;;;;8.44;73.04;101614.06;5061813;28;20382;-60
2022/03/17 17:33:47;;;;;;;9.07;8.13;;;;;;;8.44;73.47;101629.47;5055564;28;20185;-59
2022/03/17 17:36:12;;;;;;;8.87;7.67;;;;;;;8.34;74.48;101633.09;5050522;28;20231;-61
2022/03/17 17:38:39;;;;;;;10.97;8.17;;;;;;;8.35;74.46;101632.22;5052006;28;20182;-63
2022/03/17 17:41:04;;;;;;;8.77;7.83;;;;;;;8.22;74.78;101644.44;5057739;28;20281;-60
2022/03/17 17:43:29;;;;;;;9.47;6.80;;;;;;;8.20;75.19;101649.59;5045794;28;20177;-63
2022/03/17 17:45:55;;;;;;;12.83;7.80;;;;;;;8.12;75.41;101656.59;5069745;28;20516;-60
2022/03/17 17:48:22;;;;;;;9.93;7.43;;;;;;;8.13;75.07;101652.31;5064560;28;20209;-61
2022/03/17 17:50:47;;;;;;;12.03;7.97;;;;;;;8.03;76.06;101652.47;5062997;28;20221;-60
2022/03/17 17:53:14;;;;;;;9.00;7.53;;;;;;;8.17;76.02;101656.50;5082119;28;20212;-62
2022/03/17 17:55:41;;;;;;;8.27;7.47;;;;;;;8.11;75.20;101659.19;5059997;28;20180;-59
2022/03/17 17:58:07;;;;;;;11.20;8.57;;;;;;;8.04;75.64;101658.47;5069543;28;20594;-60
2022/03/17 18:00:32;;;;;;;13.43;8.23;;;;;;;8.07;76.12;101666.09;5064246;28;20227;-63
2022/03/17 18:03:01;;;;;;;12.23;8.77;;;;;;;7.90;76.82;101669.81;5083141;28;20180;-60
2022/03/17 18:05:28;;;;;;;11.30;8.77;;;;;;;7.92;76.96;101672.34;5069903;28;20195;-60
2022/03/17 18:07:54;;;;;;;10.63;8.77;;;;;;;7.95;77.23;101672.31;5069678;28;20173;-60
2022/03/17 18:10:21;;;;;;;12.00;9.40;;;;;;;7.83;78.07;101675.91;5061350;28;20175;-59
2022/03/17 18:12:53;;;;;;;12.20;10.10;;;;;;;7.88;78.53;101683.53;5069747;28;20655;-61
2022/03/17 18:15:21;;;;;;;13.77;10.17;;;;;;;7.83;78.70;101675.09;5069804;28;20204;-60
2022/03/17 18:17:46;;;;;;;12.80;10.00;;;;;;;7.87;79.03;101674.16;5071443;28;20523;-59
2022/03/17 18:20:12;;;;;;;12.23;10.13;;;;;;;7.94;78.95;101687.69;5056124;28;20196;-61
2022/03/17 18:22:37;;;;;;;13.87;10.50;;;;;;;8.06;78.15;101688.31;5075488;28;20597;-60
2022/03/17 18:25:03;;;;;;;12.87;10.30;;;;;;;7.92;78.75;101690.28;5062976;28;20199;-59
2022/03/17 18:27:28;;;;;;;11.70;10.17;;;;;;;7.79;79.19;101699.91;5061501;28;20193;-62
2022/03/17 18:29:53;;;;;;;10.63;9.10;;;;;;;7.95;79.56;101697.94;5061301;28;20270;-62
2022/03/17 18:32:18;;;;;;;12.13;9.33;;;;;;;7.81;79.49;101705.84;5066565;28;20719;-62
2022/03/17 18:34:44;;;;;;;12.50;9.63;;;;;;;7.85;79.90;101709.19;5070964;28;20173;-61
2022/03/17 18:37:09;;;;;;;11.13;9.10;;;;;;;7.84;79.68;101710.91;5073360;28;20177;-62
2022/03/17 18:39:34;;;;;;;12.30;8.83;;;;;;;7.80;78.96;101716.13;5071222;28;20223;-59
2022/03/17 18:42:00;;;;;;;15.40;9.77;;;;;;;7.69;79.50;101708.59;5085799;28;20223;-59
2022/03/17 18:44:25;;;;;;;12.77;9.83;;;;;;;7.74;79.81;101719.66;5074080;28;20635;-61
2022/03/17 18:46:50;;;;;;;16.40;10.83;;;;;;;7.76;79.78;101712.75;5067410;28;20250;-62
2022/03/17 18:49:16;;;;;;;11.13;10.03;;;;;;;7.80;79.69;101723.81;5063684;28;20172;-60
2022/03/17 18:51:42;;;;;;;8.93;7.87;;;;;;;7.67;79.23;101728.28;5078266;28;20620;-60
2022/03/17 18:54:21;;;;;;;12.30;8.10;;;;;;;7.76;78.75;101730.69;5071539;28;20181;-61
2022/03/17 18:56:46;;;;;;;9.13;6.50;;;;;;;7.75;77.95;101739.25;5066233;28;20732;-61
2022/03/17 18:59:12;;;;;;;7.20;6.20;;;;;;;7.67;77.19;101739.38;5067099;28;20322;-60
2022/03/17 19:01:37;;;;;;;9.13;5.80;;;;;;;7.66;76.48;101737.69;5078925;28;20211;-61
2022/03/17 19:04:03;;;;;;;6.63;5.83;;;;;;;7.62;76.81;101743.72;5071852;28;20180;-60
2022/03/17 19:06:29;;;;;;;10.70;5.83;;;;;;;7.57;76.74;101741.22;5067521;28;20682;-64
2022/03/17 19:08:54;;;;;;;9.30;5.50;;;;;;;7.62;75.27;101742.91;5062620;28;20184;-62
2022/03/17 19:11:19;;;;;;;9.87;5.37;;;;;;;7.57;74.37;101748.09;5075310;28;20220;-63
2022/03/17 19:13:44;;;;;;;7.00;5.00;;;;;;;7.51;74.48;101754.13;5082587;28;20255;-61
2022/03/17 19:16:10;;;;;;;10.17;5.27;;;;;;;7.53;74.03;101764.34;5072906;28;20212;-62
2022/03/17 19:18:37;;;;;;;8.17;4.43;;;;;;;7.58;73.95;101760.84;5068704;28;20197;-60
2022/03/17 19:21:03;;;;;;;9.40;4.00;;;;;;;7.60;72.69;101763.38;5059855;28;20243;-59
2022/03/17 19:23:28;;;;;;;8.97;4.57;;;;;;;7.53;73.53;101775.44;5088740;28;20254;-60
2022/03/17 19:25:56;;;;;;;7.60;4.30;;;;;;;7.41;72.97;101780.75;5073771;28;20218;-61
2022/03/17 19:28:21;;;;;;;7.23;3.73;;;;;;;7.42;72.70;101783.28;5066584;28;20177;-61
2022/03/17 19:30:47;;;;;;;7.07;3.47;;;;;;;7.44;72.84;101783.25;5055298;28;20285;-60
2022/03/17 19:33:12;;;;;;;7.73;3.67;;;;;;;7.43;72.32;101789.25;5063168;28;20235;-60
2022/03/17 19:35:37;;;;;;;7.87;3.30;;;;;;;7.37;72.61;101797.03;5052809;28;20639;-61
2022/03/17 19:38:03;;;;;;;5.53;3.50;;;;;;;7.35;72.77;101798.75;5052546;28;20172;-66
2022/03/17 19:41:08;;;;;;;8.07;3.73;;;;;;;7.41;73.10;101798.66;5050206;28;20226;-62
2022/03/17 19:43:14;;;;;;;6.43;3.17;;;;;;;7.36;72.83;101808.97;5073370;28;20188;-65
2022/03/17 19:45:40;;;;;;;8.67;3.80;;;;;;;7.39;73.06;101808.06;5052102;28;20792;-60
2022/03/17 19:48:05;;;;;;;5.63;3.33;;;;;;;7.39;72.89;101813.19;5053488;28;20181;-61
2022/03/17 19:53:14;;;;;;;8.83;3.37;;;;;;;7.24;73.13;101821.94;5093401;28;20246;-61
2022/03/17 19:55:40;;;;;;;7.57;2.83;;;;;;;7.27;73.58;101825.31;5073792;28;20200;-61
2022/03/17 19:58:05;;;;;;;10.33;3.57;;;;;;;7.24;73.92;101827.91;5073547;28;20225;-61
2022/03/17 20:00:30;;;;;;;5.73;3.50;;;;;;;7.20;74.19;101836.47;5052322;27;20249;-61
2022/03/17 20:02:56;;;;;;;6.80;2.90;;;;;;;7.11;73.93;101839.16;5055074;28;20192;-62
2022/03/17 20:05:21;;;;;;;6.67;3.40;;;;;;;7.09;74.52;101840.88;5053544;28;20248;-61
2022/03/17 20:07:46;;;;;;;7.23;3.73;;;;;;;7.11;74.85;101837.44;5070477;28;20902;-60
2022/03/17 20:10:12;;;;;;;6.13;3.50;;;;;;;7.04;74.89;101847.78;5065458;28;20191;-59
2022/03/17 20:15:22;;;;;;;8.07;3.23;;;;;;;7.00;75.37;101857.19;5068480;28;20246;-60
2022/03/17 20:17:49;;;;;;;5.97;2.80;;;;;;;7.09;74.92;101857.09;5073602;28;20188;-60
2022/03/17 20:20:14;;;;;;;7.73;2.93;;;;;;;7.01;73.55;101866.56;5045877;28;20172;-60
2022/03/17 20:22:40;;;;;;;9.30;3.10;;;;;;;6.99;72.72;101868.28;5077742;28;20175;-62
2022/03/17 20:25:06;;;;;;;6.73;3.20;;;;;;;6.97;72.94;101869.19;5071333;28;20215;-63
2022/03/17 20:27:31;;;;;;;7.47;3.07;;;;;;;6.95;72.29;101875.16;5052826;28;20204;-63
2022/03/17 20:29:57;;;;;;;9.43;2.60;;;;;;;6.97;71.88;101871.72;5051874;28;20177;-59
2022/03/17 20:32:22;;;;;;;6.83;2.70;;;;;;;6.90;71.35;101876.91;5036517;28;20658;-64
2022/03/17 20:34:47;;;;;;;5.70;2.50;;;;;;;6.83;71.33;101888.06;5050327;28;20271;-64
2022/03/17 20:37:15;;;;;;;13.17;3.23;;;;;;;6.84;71.04;101886.38;5055650;28;20180;-61
2022/03/17 20:39:40;;;;;;;10.93;3.47;;;;;;;6.79;70.45;101897.47;5052489;28;20674;-63
2022/03/17 20:42:06;;;;;;;8.17;2.97;;;;;;;6.92;70.32;101889.69;5073963;28;20226;-66
2022/03/17 20:44:32;;;;;;;7.00;3.27;;;;;;;7.10;70.45;101897.16;5053009;28;20690;-63
2022/03/17 20:46:57;;;;;;;7.33;3.27;;;;;;;7.15;68.22;101899.69;5055947;28;20179;-61
2022/03/17 20:49:24;;;;;;;6.70;3.03;;;;;;;7.00;68.74;101897.31;5055122;28;20183;-59
2022/03/17 20:51:49;;;;;;;7.03;2.97;;;;;;;6.87;68.80;101900.00;5059193;28;20305;-59
2022/03/17 20:54:15;;;;;;;11.73;3.27;;;;;;;6.82;69.41;101904.28;5061592;28;20284;-59
2022/03/17 20:56:40;;;;;;;11.80;3.30;;;;;;;6.82;70.05;101903.44;5050146;28;20184;-58
2022/03/17 20:59:05;;;;;;;9.57;3.97;;;;;;;6.77;69.99;101909.47;5055194;28;20715;-59
2022/03/17 21:01:31;;;;;;;4.87;2.57;;;;;;;6.68;70.30;101914.63;5074647;28;20221;-60
2022/03/17 21:03:57;;;;;;;5.93;2.97;;;;;;;6.63;70.29;101914.69;5069247;28;20638;-61
2022/03/17 21:06:23;;;;;;;11.90;3.23;;;;;;;6.58;70.80;101923.28;5052096;28;20222;-62
2022/03/17 21:08:49;;;;;;;7.57;2.93;;;;;;;6.59;70.89;101915.56;5050768;28;20191;-61
2022/03/17 21:11:15;;;;;;;6.20;2.63;;;;;;;6.58;70.48;101921.53;5060230;28;20230;-59
2022/03/17 21:13:41;;;;;;;6.83;2.60;;;;;;;6.58;70.72;101928.38;5062583;28;20238;-62
2022/03/17 21:16:08;;;;;;;4.57;3.07;;;;;;;6.55;70.76;101931.81;5066303;28;20191;-61
2022/03/17 21:18:34;;;;;;;11.67;3.20;;;;;;;6.67;71.06;101937.69;5033559;28;20175;-60
2022/03/17 21:20:59;;;;;;;7.27;2.73;;;;;;;6.43;71.61;101935.31;5069880;28;20219;-61
2022/03/17 21:23:25;;;;;;;7.53;2.70;;;;;;;6.42;71.41;101938.72;5069202;28;20173;-61
2022/03/17 21:25:50;;;;;;;5.07;3.03;;;;;;;6.45;71.78;101935.31;5055717;28;20276;-62
2022/03/17 21:28:15;;;;;;;8.60;3.20;;;;;;;6.41;72.04;101939.59;5053275;28;20184;-59
2022/03/17 21:30:41;;;;;;;7.90;2.10;;;;;;;6.32;72.02;101954.16;5053281;28;20219;-62
2022/03/17 21:33:06;;;;;;;8.73;3.23;;;;;;;6.36;72.12;101950.72;5073055;28;20196;-60
2022/03/17 21:35:31;;;;;;;8.70;3.10;;;;;;;6.40;71.81;101950.69;5067043;28;20175;-60
2022/03/17 21:37:59;;;;;;;6.70;4.03;;;;;;;6.34;72.04;101953.28;5054167;28;20208;-60
2022/03/17 21:40:25;;;;;;;6.30;2.63;;;;;;;6.26;72.72;101955.91;5046907;28;20234;-62
2022/03/17 21:42:51;;;;;;;12.00;4.43;;;;;;;6.25;72.56;101956.75;5074460;28;20187;-60
2022/03/17 21:45:17;;;;;;;8.33;3.30;;;;;;;6.23;72.82;101963.56;5063705;28;20175;-60
2022/03/17 21:47:43;;;;;;;9.03;3.17;;;;;;;6.28;72.86;101966.94;5067031;28;20615;-62
2022/03/17 21:50:09;;;;;;;8.43;3.13;;;;;;;6.25;72.97;101964.41;5052519;28;20228;-61
2022/03/17 21:52:34;;;;;;;6.43;2.47;;;;;;;6.19;73.06;101968.69;5081131;28;20202;-60
2022/03/17 21:54:59;;;;;;;8.03;2.90;;;;;;;6.17;73.06;101968.72;5070160;28;20201;-61
2022/03/17 21:57:25;;;;;;;8.07;2.90;;;;;;;6.16;72.58;101973.84;5066862;28;20184;-61
2022/03/17 21:59:50;;;;;;;6.40;2.63;;;;;;;6.21;72.62;101977.22;5068540;28;20179;-63
2022/03/17 22:02:16;;;;;;;7.80;2.67;;;;;;;6.08;73.37;101982.41;5083193;28;20279;-70
2022/03/17 22:04:42;;;;;;;7.90;2.47;;;;;;;6.13;73.04;101985.78;5057745;28;20178;-62
2022/03/17 22:07:07;;;;;;;15.47;2.97;;;;;;;6.11;73.11;101989.19;5066081;28;20221;-61
2022/03/17 22:09:34;;;;;;;5.03;2.73;;;;;;;6.04;73.64;101987.53;5069320;28;20190;-63